createdAt,value
2019-03-24T00:04:21.119Z,99691.22
2019-03-24T00:09:35.194Z,99689.62
2019-03-24T00:14:41.095Z,99688.25
2019-03-24T00:19:47.521Z,99678.11
2019-03-24T00:24:53.361Z,99684.30
2019-03-24T00:29:59.114Z,99680.22
2019-03-24T00:35:06.721Z,99676.11
2019-03-24T00:40:12.787Z,99667.80
2019-03-24T00:45:20.649Z,99659.62
2019-03-24T00:50:26.649Z,99659.38
2019-03-24T00:55:32.367Z,99658.81
2019-03-24T01:00:48.857Z,99649.30
2019-03-24T01:05:54.671Z,99651.86
2019-03-24T01:11:00.488Z,99647.23
2019-03-24T01:16:06.923Z,99635.95
2019-03-24T01:21:12.962Z,99641.89
2019-03-24T01:26:18.799Z,99641.48
2019-03-24T01:31:25.787Z,99642.16
2019-03-24T01:36:31.625Z,99637.06
2019-03-24T01:41:37.846Z,99639.19
2019-03-24T01:46:43.851Z,99639.01
2019-03-24T01:51:49.628Z,99637.11
2019-03-24T01:56:57.091Z,99643.19
2019-03-24T02:02:03.214Z,99636.16
2019-03-24T02:07:08.945Z,99633.42
2019-03-24T02:12:14.805Z,99633.61
2019-03-24T02:17:20.864Z,99626.52
2019-03-24T02:22:26.690Z,99614.27
2019-03-24T02:27:32.448Z,99614.58
2019-03-24T02:32:38.313Z,99602.04
2019-03-24T02:37:44.064Z,99598.28
2019-03-24T02:42:49.998Z,99598.17
2019-03-24T02:47:55.722Z,99593.71
2019-03-24T02:53:01.755Z,99585.71
2019-03-24T02:58:07.814Z,99581.87
2019-03-24T03:03:13.634Z,99582.67
2019-03-24T03:08:19.643Z,99590.71
2019-03-24T03:13:25.403Z,99579.83
2019-03-24T03:18:31.235Z,99570.48
2019-03-24T03:23:36.987Z,99571.31
2019-03-24T03:28:42.732Z,99571.83
2019-03-24T03:33:49.056Z,99570.09
2019-03-24T03:38:54.973Z,99568.64
2019-03-24T03:44:00.740Z,99562.88
2019-03-24T03:49:06.600Z,99561.16
2019-03-24T03:54:12.487Z,99566.16
2019-03-24T03:59:18.323Z,99564.95
2019-03-24T04:04:24.169Z,99558.84
2019-03-24T04:09:29.984Z,99560.81
2019-03-24T04:14:35.758Z,99558.11
2019-03-24T04:19:41.581Z,99558.80
2019-03-24T04:24:47.329Z,99556.70
2019-03-24T04:29:53.090Z,99548.63
2019-03-24T04:34:59.037Z,99543.36
2019-03-24T04:40:04.975Z,99546.56
2019-03-24T04:45:11.008Z,99540.50
2019-03-24T04:50:16.820Z,99540.91
2019-03-24T04:55:22.689Z,99539.71
2019-03-24T05:00:39.807Z,99542.75
2019-03-24T05:05:46.261Z,99545.59
2019-03-24T05:10:53.083Z,99544.49
2019-03-24T05:15:58.846Z,99540.23
2019-03-24T05:21:04.780Z,99546.33
2019-03-24T05:26:10.613Z,99545.48
2019-03-24T05:31:16.654Z,99546.98
2019-03-24T05:36:22.722Z,99549.77
2019-03-24T05:41:28.555Z,99550.61
2019-03-24T05:46:34.298Z,99554.84
2019-03-24T05:51:40.058Z,99551.50
2019-03-24T05:56:46.113Z,99564.71
2019-03-24T06:01:51.872Z,99562.21
2019-03-24T06:06:57.608Z,99566.72
2019-03-24T06:12:03.462Z,99563.76
2019-03-24T06:17:09.326Z,99567.19
2019-03-24T06:22:15.152Z,99557.52
2019-03-24T06:27:20.882Z,99558.08
2019-03-24T06:32:26.982Z,99563.39
2019-03-24T06:37:32.842Z,99566.02
2019-03-24T06:42:38.697Z,99561.41
2019-03-24T06:47:45.202Z,99557.97
2019-03-24T06:52:51.296Z,99559.70
2019-03-24T06:57:57.428Z,99563.89
2019-03-24T07:03:03.657Z,99559.33
2019-03-24T07:08:09.413Z,99555.83
2019-03-24T07:13:15.202Z,99562.51
2019-03-24T07:18:20.992Z,99558.97
2019-03-24T07:23:26.742Z,99555.52
2019-03-24T07:28:32.752Z,99553.00
2019-03-24T07:33:38.546Z,99550.10
2019-03-24T07:38:44.680Z,99552.11
2019-03-24T07:43:50.546Z,99543.83
2019-03-24T07:48:56.297Z,99545.58
2019-03-24T07:54:02.057Z,99542.42
2019-03-24T07:59:07.955Z,99538.95
2019-03-24T08:04:13.809Z,99539.59
2019-03-24T08:09:20.645Z,99529.18
2019-03-24T08:14:26.425Z,99530.19
2019-03-24T08:19:32.158Z,99520.34
2019-03-24T08:24:38.015Z,99516.84
2019-03-24T08:29:43.905Z,99520.05
2019-03-24T08:34:50.202Z,99509.03
2019-03-24T08:39:56.478Z,99507.72
2019-03-24T08:45:03.221Z,99498.06
2019-03-24T08:50:09.298Z,99500.75
2019-03-24T08:55:15.025Z,99475.66
2019-03-24T09:00:30.130Z,99467.81
2019-03-24T09:05:29.405Z,99460.52
2019-03-24T09:10:35.382Z,99457.39
2019-03-24T09:15:43.148Z,99454.09
2019-03-24T09:20:48.675Z,99446.88
2019-03-24T09:25:54.468Z,99445.98
2019-03-24T09:31:00.752Z,99448.22
2019-03-24T09:36:08.421Z,99442.59
2019-03-24T09:41:14.196Z,99440.02
2019-03-24T09:46:20.003Z,99431.39
2019-03-24T09:51:25.846Z,99427.44
2019-03-24T09:56:31.611Z,99421.03
2019-03-24T10:01:38.467Z,99413.87
2019-03-24T10:06:44.229Z,99406.58
2019-03-24T10:11:52.197Z,99401.60
2019-03-24T10:16:58.937Z,99392.77
2019-03-24T10:22:04.775Z,99379.09
2019-03-24T10:27:10.667Z,99373.02
2019-03-24T10:32:17.626Z,99388.17
2019-03-24T10:37:23.454Z,99388.13
2019-03-24T10:42:29.455Z,99395.11
2019-03-24T10:47:35.303Z,99395.86
2019-03-24T10:52:41.594Z,99397.30
2019-03-24T10:57:48.550Z,99401.19
2019-03-24T11:02:54.434Z,99390.88
2019-03-24T11:08:01.322Z,99390.84
2019-03-24T11:13:07.216Z,99383.97
2019-03-24T11:18:13.044Z,99378.46
2019-03-24T11:23:19.369Z,99375.63
2019-03-24T11:28:25.292Z,99374.97
2019-03-24T11:33:31.610Z,99371.56
2019-03-24T11:38:38.356Z,99377.94
2019-03-24T11:43:44.274Z,99378.45
2019-03-24T11:48:50.358Z,99374.42
2019-03-24T11:53:56.529Z,99386.63
2019-03-24T11:59:02.662Z,99383.83
2019-03-24T12:04:10.411Z,99384.41
2019-03-24T12:09:16.285Z,99390.09
2019-03-24T12:14:22.110Z,99383.34
2019-03-24T12:19:29.214Z,99387.26
2019-03-24T12:24:35.094Z,99386.45
2019-03-24T12:29:41.571Z,99385.67
2019-03-24T12:34:47.328Z,99375.46
2019-03-24T12:39:53.202Z,99362.55
2019-03-24T12:44:59.081Z,99347.59
2019-03-24T12:50:09.318Z,99342.88
2019-03-24T12:55:15.131Z,99338.65
2019-03-24T13:00:34.265Z,99328.36
2019-03-24T13:05:40.192Z,99329.34
2019-03-24T13:10:46.973Z,99322.79
2019-03-24T13:15:53.959Z,99331.05
2019-03-24T13:20:59.897Z,99321.95
2019-03-24T13:26:06.268Z,99320.87
2019-03-24T13:31:12.098Z,99324.14
2019-03-24T13:36:17.910Z,99313.58
2019-03-24T13:41:23.724Z,99312.22
2019-03-24T13:46:30.144Z,99308.59
2019-03-24T13:51:36.044Z,99310.88
2019-03-24T13:56:41.832Z,99312.45
2019-03-24T14:01:47.932Z,99311.22
2019-03-24T14:06:54.110Z,99298.95
2019-03-24T14:12:00.040Z,99299.03
2019-03-24T14:17:05.846Z,99287.79
2019-03-24T14:22:11.699Z,99289.75
2019-03-24T14:27:18.492Z,99285.70
2019-03-24T14:32:24.351Z,99286.25
2019-03-24T14:37:31.230Z,99280.50
2019-03-24T14:42:37.019Z,99281.89
2019-03-24T14:47:42.932Z,99273.66
2019-03-24T14:52:48.689Z,99268.92
2019-03-24T14:57:54.795Z,99278.78
2019-03-24T15:03:00.699Z,99273.30
2019-03-24T15:08:07.523Z,99275.11
2019-03-24T15:13:13.468Z,99269.06
2019-03-24T15:18:19.341Z,99263.38
2019-03-24T15:23:25.202Z,99264.34
2019-03-24T15:28:30.972Z,99262.52
2019-03-24T15:33:36.990Z,99256.20
2019-03-24T15:38:42.835Z,99260.20
2019-03-24T15:43:49.122Z,99252.55
2019-03-24T15:48:55.418Z,99247.34
2019-03-24T15:54:01.225Z,99245.27
2019-03-24T15:59:07.076Z,99241.09
2019-03-24T16:04:13.003Z,99242.59
2019-03-24T16:09:18.949Z,99238.77
2019-03-24T16:14:24.857Z,99235.88
2019-03-24T16:19:30.717Z,99231.28
2019-03-24T16:24:36.534Z,99227.62
2019-03-24T16:29:42.282Z,99217.43
2019-03-24T16:34:48.299Z,99214.91
2019-03-24T16:39:54.073Z,99214.55
2019-03-24T16:45:00.851Z,99218.53
2019-03-24T16:50:08.705Z,99232.56
2019-03-24T16:55:14.782Z,99231.20
2019-03-24T17:00:20.700Z,99220.27
2019-03-24T17:05:26.594Z,99220.46
2019-03-24T17:10:32.485Z,99224.80
2019-03-24T17:15:38.364Z,99226.31
2019-03-24T17:20:44.230Z,99233.31
2019-03-24T17:25:50.222Z,99236.03
2019-03-24T17:30:56.167Z,99236.13
2019-03-24T17:36:02.446Z,99235.88
2019-03-24T17:41:08.223Z,99234.31
2019-03-24T17:46:14.055Z,99240.02
2019-03-24T17:51:19.786Z,99240.97
2019-03-24T17:56:25.666Z,99237.58
2019-03-24T18:01:31.534Z,99246.06
2019-03-24T18:06:37.378Z,99239.47
2019-03-24T18:11:43.167Z,99249.08
2019-03-24T18:16:48.945Z,99254.08
2019-03-24T18:21:54.667Z,99251.84
2019-03-24T18:27:00.573Z,99251.90
2019-03-24T18:32:06.745Z,99258.51
2019-03-24T18:37:12.562Z,99253.64
2019-03-24T18:42:18.293Z,99265.35
2019-03-24T18:47:24.168Z,99263.51
2019-03-24T18:52:29.956Z,99266.28
2019-03-24T18:57:35.917Z,99260.70
2019-03-24T19:02:41.681Z,99268.98
2019-03-24T19:07:47.850Z,99265.48
2019-03-24T19:12:53.740Z,99272.39
2019-03-24T19:17:59.489Z,99272.62
2019-03-24T19:23:05.259Z,99264.64
2019-03-24T19:28:11.091Z,99265.22
2019-03-24T19:33:16.867Z,99273.38
2019-03-24T19:38:23.759Z,99273.83
2019-03-24T19:43:29.667Z,99282.63
2019-03-24T19:48:35.424Z,99281.11
2019-03-24T19:53:41.207Z,99266.91
2019-03-24T19:58:47.344Z,99270.69
2019-03-24T20:03:53.264Z,99259.31
2019-03-24T20:08:59.092Z,99257.09
2019-03-24T20:14:04.976Z,99260.75
2019-03-24T20:19:10.877Z,99264.03
2019-03-24T20:24:16.743Z,99251.19
2019-03-24T20:29:22.748Z,99255.60
2019-03-24T20:34:31.012Z,99251.05
2019-03-24T20:39:36.777Z,99253.63
2019-03-24T20:44:44.827Z,99239.48
2019-03-24T20:49:51.700Z,99242.28
2019-03-24T20:54:58.022Z,99243.02
2019-03-24T21:00:06.244Z,99235.53
2019-03-24T21:05:14.568Z,99233.09
2019-03-24T21:10:20.786Z,99231.57
2019-03-24T21:15:26.688Z,99223.39
2019-03-24T21:20:32.674Z,99224.36
2019-03-24T21:25:38.983Z,99228.30
2019-03-24T21:30:44.807Z,99229.73
2019-03-24T21:35:51.806Z,99223.07
2019-03-24T21:40:57.778Z,99220.14
2019-03-24T21:46:04.646Z,99214.32
2019-03-24T21:51:10.974Z,99219.67
2019-03-24T21:56:16.930Z,99219.02
2019-03-24T22:01:23.200Z,99209.97
2019-03-24T22:06:29.051Z,99205.53
2019-03-24T22:11:35.208Z,99201.95
2019-03-24T22:16:41.548Z,99203.27
2019-03-24T22:21:47.756Z,99198.51
2019-03-24T22:26:54.580Z,99200.35
2019-03-24T22:32:00.472Z,99203.66
2019-03-24T22:37:15.514Z,99201.56
2019-03-24T22:42:14.018Z,99202.45
2019-03-24T22:47:19.955Z,99202.59
2019-03-24T22:52:25.797Z,99199.51
2019-03-24T22:57:32.663Z,99199.29
2019-03-24T23:02:38.815Z,99189.38
2019-03-24T23:07:44.581Z,99189.46
2019-03-24T23:12:50.399Z,99181.47
2019-03-24T23:17:56.273Z,99190.05
2019-03-24T23:23:02.141Z,99184.22
2019-03-24T23:28:08.469Z,99179.33
2019-03-24T23:33:14.409Z,99180.97
2019-03-24T23:38:20.502Z,99181.07
2019-03-24T23:43:26.317Z,99178.66
2019-03-24T23:48:32.062Z,99179.52
2019-03-24T23:53:37.812Z,99169.66
2019-03-24T23:58:43.893Z,99170.56
